sensor_id;sensor_type;location;lat;lon;timestamp;P1;durP1;ratioP1;P2;durP2;ratioP2
6141;SDS011;71289;51.552;6.210;2023-07-22T00:00:25;19.23;;;12.23;;
6141;SDS011;71289;51.552;6.210;2023-07-22T00:02:51;18.40;;;12.93;;
6141;SDS011;71289;51.552;6.210;2023-07-22T00:05:16;18.93;;;12.90;;
6141;SDS011;71289;51.552;6.210;2023-07-22T00:07:48;18.17;;;12.90;;
6141;SDS011;71289;51.552;6.210;2023-07-22T00:10:14;17.53;;;11.77;;
6141;SDS011;71289;51.552;6.210;2023-07-22T00:12:39;17.80;;;12.27;;
6141;SDS011;71289;51.552;6.210;2023-07-22T00:15:05;16.33;;;12.50;;
6141;SDS011;71289;51.552;6.210;2023-07-22T00:17:31;21.73;;;14.50;;
6141;SDS011;71289;51.552;6.210;2023-07-22T00:19:57;20.83;;;12.33;;
6141;SDS011;71289;51.552;6.210;2023-07-22T00:22:22;20.13;;;12.73;;
6141;SDS011;71289;51.552;6.210;2023-07-22T00:24:48;21.17;;;13.23;;
6141;SDS011;71289;51.552;6.210;2023-07-22T00:27:14;20.13;;;12.77;;
6141;SDS011;71289;51.552;6.210;2023-07-22T00:29:39;20.37;;;12.90;;
6141;SDS011;71289;51.552;6.210;2023-07-22T00:32:05;20.67;;;11.37;;
6141;SDS011;71289;51.552;6.210;2023-07-22T00:34:33;21.83;;;10.90;;
6141;SDS011;71289;51.552;6.210;2023-07-22T00:36:59;19.77;;;13.93;;
6141;SDS011;71289;51.552;6.210;2023-07-22T00:39:24;21.30;;;13.03;;
6141;SDS011;71289;51.552;6.210;2023-07-22T00:41:50;15.10;;;11.07;;
6141;SDS011;71289;51.552;6.210;2023-07-22T00:44:15;18.67;;;13.40;;
6141;SDS011;71289;51.552;6.210;2023-07-22T00:46:41;19.03;;;12.80;;
6141;SDS011;71289;51.552;6.210;2023-07-22T00:49:07;22.33;;;13.60;;
6141;SDS011;71289;51.552;6.210;2023-07-22T00:51:34;20.03;;;13.60;;
6141;SDS011;71289;51.552;6.210;2023-07-22T00:54:00;18.17;;;12.83;;
6141;SDS011;71289;51.552;6.210;2023-07-22T00:56:25;19.20;;;13.57;;
6141;SDS011;71289;51.552;6.210;2023-07-22T00:58:51;21.00;;;13.90;;
6141;SDS011;71289;51.552;6.210;2023-07-22T01:01:17;22.03;;;13.30;;
6141;SDS011;71289;51.552;6.210;2023-07-22T01:03:43;23.97;;;14.60;;
6141;SDS011;71289;51.552;6.210;2023-07-22T01:06:09;16.53;;;13.20;;
6141;SDS011;71289;51.552;6.210;2023-07-22T01:08:35;26.23;;;15.97;;
6141;SDS011;71289;51.552;6.210;2023-07-22T01:11:01;25.17;;;14.17;;
6141;SDS011;71289;51.552;6.210;2023-07-22T01:13:26;22.63;;;13.03;;
6141;SDS011;71289;51.552;6.210;2023-07-22T01:15:52;18.27;;;12.90;;
6141;SDS011;71289;51.552;6.210;2023-07-22T01:18:18;20.70;;;13.53;;
6141;SDS011;71289;51.552;6.210;2023-07-22T01:20:43;21.10;;;14.33;;
6141;SDS011;71289;51.552;6.210;2023-07-22T01:23:10;25.50;;;13.43;;
6141;SDS011;71289;51.552;6.210;2023-07-22T01:25:36;21.53;;;14.10;;
6141;SDS011;71289;51.552;6.210;2023-07-22T01:28:02;20.33;;;13.67;;
6141;SDS011;71289;51.552;6.210;2023-07-22T01:30:28;26.97;;;15.90;;
6141;SDS011;71289;51.552;6.210;2023-07-22T01:32:53;20.23;;;14.40;;
6141;SDS011;71289;51.552;6.210;2023-07-22T01:35:19;18.73;;;13.13;;
6141;SDS011;71289;51.552;6.210;2023-07-22T01:37:45;20.73;;;15.23;;
6141;SDS011;71289;51.552;6.210;2023-07-22T01:40:11;21.27;;;13.30;;
6141;SDS011;71289;51.552;6.210;2023-07-22T01:42:41;20.77;;;13.83;;
6141;SDS011;71289;51.552;6.210;2023-07-22T01:45:07;26.30;;;15.40;;
6141;SDS011;71289;51.552;6.210;2023-07-22T01:47:34;22.43;;;14.97;;
6141;SDS011;71289;51.552;6.210;2023-07-22T01:50:00;29.07;;;16.17;;
6141;SDS011;71289;51.552;6.210;2023-07-22T01:52:31;26.53;;;16.00;;
6141;SDS011;71289;51.552;6.210;2023-07-22T01:54:57;23.87;;;15.27;;
6141;SDS011;71289;51.552;6.210;2023-07-22T01:57:22;19.87;;;13.70;;
6141;SDS011;71289;51.552;6.210;2023-07-22T01:59:48;30.27;;;15.47;;
6141;SDS011;71289;51.552;6.210;2023-07-22T02:02:13;21.83;;;14.37;;
6141;SDS011;71289;51.552;6.210;2023-07-22T02:04:39;20.83;;;15.10;;
6141;SDS011;71289;51.552;6.210;2023-07-22T02:07:04;26.87;;;15.30;;
6141;SDS011;71289;51.552;6.210;2023-07-22T02:09:31;22.40;;;15.03;;
6141;SDS011;71289;51.552;6.210;2023-07-22T02:11:58;24.80;;;15.23;;
6141;SDS011;71289;51.552;6.210;2023-07-22T02:14:23;24.50;;;15.60;;
6141;SDS011;71289;51.552;6.210;2023-07-22T02:16:49;21.90;;;14.20;;
6141;SDS011;71289;51.552;6.210;2023-07-22T02:19:14;29.33;;;16.57;;
6141;SDS011;71289;51.552;6.210;2023-07-22T02:21:41;24.03;;;15.53;;
6141;SDS011;71289;51.552;6.210;2023-07-22T02:24:07;25.73;;;15.10;;
6141;SDS011;71289;51.552;6.210;2023-07-22T02:26:33;22.70;;;14.47;;
6141;SDS011;71289;51.552;6.210;2023-07-22T02:28:59;24.23;;;16.33;;
6141;SDS011;71289;51.552;6.210;2023-07-22T02:31:24;34.00;;;15.40;;
6141;SDS011;71289;51.552;6.210;2023-07-22T02:33:50;26.97;;;15.90;;
6141;SDS011;71289;51.552;6.210;2023-07-22T02:36:16;29.63;;;16.00;;
6141;SDS011;71289;51.552;6.210;2023-07-22T02:38:41;29.53;;;15.13;;
6141;SDS011;71289;51.552;6.210;2023-07-22T02:41:07;20.60;;;13.53;;
6141;SDS011;71289;51.552;6.210;2023-07-22T02:43:33;22.10;;;15.20;;
6141;SDS011;71289;51.552;6.210;2023-07-22T02:46:03;32.97;;;16.30;;
6141;SDS011;71289;51.552;6.210;2023-07-22T02:48:32;23.30;;;15.27;;
6141;SDS011;71289;51.552;6.210;2023-07-22T02:51:03;23.30;;;14.63;;
6141;SDS011;71289;51.552;6.210;2023-07-22T02:53:30;26.00;;;13.90;;
6141;SDS011;71289;51.552;6.210;2023-07-22T02:55:55;21.90;;;14.50;;
6141;SDS011;71289;51.552;6.210;2023-07-22T02:58:21;23.27;;;14.63;;
6141;SDS011;71289;51.552;6.210;2023-07-22T03:00:46;21.10;;;13.60;;
6141;SDS011;71289;51.552;6.210;2023-07-22T03:03:12;20.02;;;13.73;;
6141;SDS011;71289;51.552;6.210;2023-07-22T03:05:37;17.57;;;12.27;;
6141;SDS011;71289;51.552;6.210;2023-07-22T03:08:03;17.53;;;12.47;;
6141;SDS011;71289;51.552;6.210;2023-07-22T03:10:28;21.10;;;13.13;;
6141;SDS011;71289;51.552;6.210;2023-07-22T03:12:55;20.73;;;13.87;;
6141;SDS011;71289;51.552;6.210;2023-07-22T03:15:24;21.30;;;12.60;;
6141;SDS011;71289;51.552;6.210;2023-07-22T03:17:51;20.37;;;12.40;;
6141;SDS011;71289;51.552;6.210;2023-07-22T03:20:16;20.67;;;13.37;;
6141;SDS011;71289;51.552;6.210;2023-07-22T03:22:44;23.73;;;13.40;;
6141;SDS011;71289;51.552;6.210;2023-07-22T03:25:10;20.00;;;12.60;;
6141;SDS011;71289;51.552;6.210;2023-07-22T03:27:36;25.87;;;13.47;;
6141;SDS011;71289;51.552;6.210;2023-07-22T03:30:03;20.10;;;14.30;;
6141;SDS011;71289;51.552;6.210;2023-07-22T03:32:31;18.37;;;13.33;;
6141;SDS011;71289;51.552;6.210;2023-07-22T03:34:57;21.53;;;13.57;;
6141;SDS011;71289;51.552;6.210;2023-07-22T03:37:22;18.37;;;13.43;;
6141;SDS011;71289;51.552;6.210;2023-07-22T03:39:48;33.83;;;15.37;;
6141;SDS011;71289;51.552;6.210;2023-07-22T03:42:13;24.63;;;15.20;;
6141;SDS011;71289;51.552;6.210;2023-07-22T03:44:39;24.63;;;14.10;;
6141;SDS011;71289;51.552;6.210;2023-07-22T03:47:05;19.97;;;13.97;;
6141;SDS011;71289;51.552;6.210;2023-07-22T03:49:31;23.47;;;14.47;;
6141;SDS011;71289;51.552;6.210;2023-07-22T03:51:56;24.67;;;14.27;;
6141;SDS011;71289;51.552;6.210;2023-07-22T03:54:22;26.10;;;14.20;;
6141;SDS011;71289;51.552;6.210;2023-07-22T03:56:47;24.50;;;14.67;;
6141;SDS011;71289;51.552;6.210;2023-07-22T03:59:13;25.97;;;13.73;;
6141;SDS011;71289;51.552;6.210;2023-07-22T04:01:38;20.50;;;13.20;;
6141;SDS011;71289;51.552;6.210;2023-07-22T04:04:04;23.37;;;14.00;;
6141;SDS011;71289;51.552;6.210;2023-07-22T04:06:29;19.50;;;13.23;;
6141;SDS011;71289;51.552;6.210;2023-07-22T04:08:55;24.10;;;14.50;;
6141;SDS011;71289;51.552;6.210;2023-07-22T04:11:20;20.57;;;14.50;;
6141;SDS011;71289;51.552;6.210;2023-07-22T04:13:46;25.73;;;14.07;;
6141;SDS011;71289;51.552;6.210;2023-07-22T04:16:11;20.90;;;14.10;;
6141;SDS011;71289;51.552;6.210;2023-07-22T04:18:37;23.17;;;14.30;;
6141;SDS011;71289;51.552;6.210;2023-07-22T04:21:02;24.80;;;14.13;;
6141;SDS011;71289;51.552;6.210;2023-07-22T04:23:28;25.57;;;15.07;;
6141;SDS011;71289;51.552;6.210;2023-07-22T04:25:53;21.30;;;14.17;;
6141;SDS011;71289;51.552;6.210;2023-07-22T04:28:19;23.77;;;15.57;;
6141;SDS011;71289;51.552;6.210;2023-07-22T04:30:53;26.67;;;15.27;;
6141;SDS011;71289;51.552;6.210;2023-07-22T04:33:21;24.33;;;12.70;;
6141;SDS011;71289;51.552;6.210;2023-07-22T04:35:46;25.00;;;15.50;;
6141;SDS011;71289;51.552;6.210;2023-07-22T04:38:11;23.23;;;14.07;;
6141;SDS011;71289;51.552;6.210;2023-07-22T04:40:37;23.70;;;13.77;;
6141;SDS011;71289;51.552;6.210;2023-07-22T04:43:07;26.80;;;14.90;;
6141;SDS011;71289;51.552;6.210;2023-07-22T04:45:32;23.27;;;14.77;;
6141;SDS011;71289;51.552;6.210;2023-07-22T04:47:59;22.27;;;14.70;;
6141;SDS011;71289;51.552;6.210;2023-07-22T04:50:25;22.10;;;12.73;;
6141;SDS011;71289;51.552;6.210;2023-07-22T04:52:50;24.77;;;14.40;;
6141;SDS011;71289;51.552;6.210;2023-07-22T04:55:16;24.07;;;14.13;;
6141;SDS011;71289;51.552;6.210;2023-07-22T04:57:42;21.70;;;13.87;;
6141;SDS011;71289;51.552;6.210;2023-07-22T05:00:10;22.10;;;14.50;;
6141;SDS011;71289;51.552;6.210;2023-07-22T05:02:44;22.43;;;15.00;;
6141;SDS011;71289;51.552;6.210;2023-07-22T05:05:11;27.30;;;15.90;;
6141;SDS011;71289;51.552;6.210;2023-07-22T05:07:40;19.27;;;13.37;;
6141;SDS011;71289;51.552;6.210;2023-07-22T05:10:06;21.70;;;15.13;;
6141;SDS011;71289;51.552;6.210;2023-07-22T05:12:36;23.63;;;13.60;;
6141;SDS011;71289;51.552;6.210;2023-07-22T05:15:05;27.30;;;15.80;;
6141;SDS011;71289;51.552;6.210;2023-07-22T05:17:31;41.47;;;16.20;;
6141;SDS011;71289;51.552;6.210;2023-07-22T05:19:57;20.67;;;14.70;;
6141;SDS011;71289;51.552;6.210;2023-07-22T05:22:23;22.70;;;14.63;;
6141;SDS011;71289;51.552;6.210;2023-07-22T05:24:49;21.70;;;14.87;;
6141;SDS011;71289;51.552;6.210;2023-07-22T05:27:15;23.63;;;14.20;;
6141;SDS011;71289;51.552;6.210;2023-07-22T05:29:42;19.23;;;13.33;;
6141;SDS011;71289;51.552;6.210;2023-07-22T05:32:07;21.37;;;13.97;;
6141;SDS011;71289;51.552;6.210;2023-07-22T05:34:33;24.03;;;13.60;;
6141;SDS011;71289;51.552;6.210;2023-07-22T05:36:58;25.67;;;16.47;;
6141;SDS011;71289;51.552;6.210;2023-07-22T05:39:24;23.47;;;14.33;;
6141;SDS011;71289;51.552;6.210;2023-07-22T05:41:50;24.87;;;16.10;;
6141;SDS011;71289;51.552;6.210;2023-07-22T05:44:15;26.33;;;14.67;;
6141;SDS011;71289;51.552;6.210;2023-07-22T05:46:41;22.80;;;14.90;;
6141;SDS011;71289;51.552;6.210;2023-07-22T05:49:07;23.53;;;14.33;;
6141;SDS011;71289;51.552;6.210;2023-07-22T05:51:33;21.17;;;15.03;;
6141;SDS011;71289;51.552;6.210;2023-07-22T05:53:59;22.87;;;15.23;;
6141;SDS011;71289;51.552;6.210;2023-07-22T05:56:24;26.17;;;14.53;;
6141;SDS011;71289;51.552;6.210;2023-07-22T05:58:50;37.53;;;15.90;;
6141;SDS011;71289;51.552;6.210;2023-07-22T06:01:16;29.20;;;16.53;;
6141;SDS011;71289;51.552;6.210;2023-07-22T06:03:42;37.67;;;15.77;;
6141;SDS011;71289;51.552;6.210;2023-07-22T06:06:08;22.97;;;15.07;;
6141;SDS011;71289;51.552;6.210;2023-07-22T06:08:34;21.90;;;15.63;;
6141;SDS011;71289;51.552;6.210;2023-07-22T06:11:00;30.67;;;16.13;;
6141;SDS011;71289;51.552;6.210;2023-07-22T06:13:25;21.90;;;14.03;;
6141;SDS011;71289;51.552;6.210;2023-07-22T06:15:51;23.47;;;15.67;;
6141;SDS011;71289;51.552;6.210;2023-07-22T06:18:17;25.70;;;14.30;;
6141;SDS011;71289;51.552;6.210;2023-07-22T06:20:43;23.03;;;14.37;;
6141;SDS011;71289;51.552;6.210;2023-07-22T06:23:09;27.43;;;17.50;;
6141;SDS011;71289;51.552;6.210;2023-07-22T06:25:35;23.03;;;14.40;;
6141;SDS011;71289;51.552;6.210;2023-07-22T06:28:00;23.40;;;15.57;;
6141;SDS011;71289;51.552;6.210;2023-07-22T06:30:26;28.30;;;16.17;;
6141;SDS011;71289;51.552;6.210;2023-07-22T06:32:52;27.60;;;15.60;;
6141;SDS011;71289;51.552;6.210;2023-07-22T06:35:18;28.20;;;16.00;;
6141;SDS011;71289;51.552;6.210;2023-07-22T06:37:43;25.83;;;15.40;;
6141;SDS011;71289;51.552;6.210;2023-07-22T06:40:09;26.03;;;16.73;;
6141;SDS011;71289;51.552;6.210;2023-07-22T06:42:35;29.43;;;15.73;;
6141;SDS011;71289;51.552;6.210;2023-07-22T06:45:01;31.20;;;17.30;;
6141;SDS011;71289;51.552;6.210;2023-07-22T06:47:26;32.13;;;16.00;;
6141;SDS011;71289;51.552;6.210;2023-07-22T06:49:52;35.70;;;17.37;;
6141;SDS011;71289;51.552;6.210;2023-07-22T06:52:18;29.53;;;17.97;;
6141;SDS011;71289;51.552;6.210;2023-07-22T06:54:43;35.10;;;18.60;;
6141;SDS011;71289;51.552;6.210;2023-07-22T06:57:09;27.53;;;16.67;;
6141;SDS011;71289;51.552;6.210;2023-07-22T06:59:34;29.53;;;15.10;;
6141;SDS011;71289;51.552;6.210;2023-07-22T07:02:00;31.93;;;16.90;;
6141;SDS011;71289;51.552;6.210;2023-07-22T07:04:26;27.83;;;16.30;;
6141;SDS011;71289;51.552;6.210;2023-07-22T07:06:51;27.33;;;16.00;;
6141;SDS011;71289;51.552;6.210;2023-07-22T07:09:17;27.73;;;15.90;;
6141;SDS011;71289;51.552;6.210;2023-07-22T07:11:42;26.20;;;17.67;;
6141;SDS011;71289;51.552;6.210;2023-07-22T07:14:09;26.40;;;15.60;;
6141;SDS011;71289;51.552;6.210;2023-07-22T07:16:35;26.63;;;16.17;;
6141;SDS011;71289;51.552;6.210;2023-07-22T07:19:00;28.03;;;15.37;;
6141;SDS011;71289;51.552;6.210;2023-07-22T07:21:26;24.83;;;15.87;;
6141;SDS011;71289;51.552;6.210;2023-07-22T07:23:53;33.77;;;17.43;;
6141;SDS011;71289;51.552;6.210;2023-07-22T07:26:19;23.40;;;15.83;;
6141;SDS011;71289;51.552;6.210;2023-07-22T07:28:45;27.40;;;17.73;;
6141;SDS011;71289;51.552;6.210;2023-07-22T07:31:11;30.73;;;16.70;;
6141;SDS011;71289;51.552;6.210;2023-07-22T07:33:37;30.27;;;16.03;;
6141;SDS011;71289;51.552;6.210;2023-07-22T07:36:03;26.20;;;14.70;;
6141;SDS011;71289;51.552;6.210;2023-07-22T07:38:29;21.03;;;13.17;;
6141;SDS011;71289;51.552;6.210;2023-07-22T07:41:04;31.70;;;16.37;;
6141;SDS011;71289;51.552;6.210;2023-07-22T07:43:36;25.53;;;14.20;;
6141;SDS011;71289;51.552;6.210;2023-07-22T07:48:42;27.47;;;14.43;;
6141;SDS011;71289;51.552;6.210;2023-07-22T07:51:14;28.43;;;15.00;;
6141;SDS011;71289;51.552;6.210;2023-07-22T07:53:41;18.90;;;11.67;;
6141;SDS011;71289;51.552;6.210;2023-07-22T07:56:09;26.87;;;14.27;;
6141;SDS011;71289;51.552;6.210;2023-07-22T07:58:35;28.83;;;13.50;;
6141;SDS011;71289;51.552;6.210;2023-07-22T08:01:00;20.43;;;11.83;;
6141;SDS011;71289;51.552;6.210;2023-07-22T08:03:26;21.47;;;13.10;;
6141;SDS011;71289;51.552;6.210;2023-07-22T08:05:51;22.17;;;12.57;;
6141;SDS011;71289;51.552;6.210;2023-07-22T08:08:17;23.37;;;11.00;;
6141;SDS011;71289;51.552;6.210;2023-07-22T08:10:42;27.63;;;12.97;;
6141;SDS011;71289;51.552;6.210;2023-07-22T08:13:09;30.30;;;13.63;;
6141;SDS011;71289;51.552;6.210;2023-07-22T08:15:35;22.60;;;12.97;;
6141;SDS011;71289;51.552;6.210;2023-07-22T08:18:00;18.70;;;12.60;;
6141;SDS011;71289;51.552;6.210;2023-07-22T08:20:26;25.73;;;13.43;;
6141;SDS011;71289;51.552;6.210;2023-07-22T08:22:52;22.73;;;13.50;;
6141;SDS011;71289;51.552;6.210;2023-07-22T08:25:17;18.47;;;12.50;;
6141;SDS011;71289;51.552;6.210;2023-07-22T08:27:43;19.37;;;12.70;;
6141;SDS011;71289;51.552;6.210;2023-07-22T08:30:08;28.00;;;13.43;;
6141;SDS011;71289;51.552;6.210;2023-07-22T08:32:34;22.33;;;12.90;;
6141;SDS011;71289;51.552;6.210;2023-07-22T08:35:00;20.53;;;12.30;;
6141;SDS011;71289;51.552;6.210;2023-07-22T08:37:25;26.67;;;12.70;;
6141;SDS011;71289;51.552;6.210;2023-07-22T08:39:51;23.50;;;13.03;;
6141;SDS011;71289;51.552;6.210;2023-07-22T08:42:17;18.90;;;11.37;;
6141;SDS011;71289;51.552;6.210;2023-07-22T08:44:44;24.10;;;13.47;;
6141;SDS011;71289;51.552;6.210;2023-07-22T08:47:14;22.23;;;13.00;;
6141;SDS011;71289;51.552;6.210;2023-07-22T08:49:42;21.37;;;13.30;;
6141;SDS011;71289;51.552;6.210;2023-07-22T08:52:11;24.20;;;14.27;;
6141;SDS011;71289;51.552;6.210;2023-07-22T08:54:39;22.50;;;12.60;;
6141;SDS011;71289;51.552;6.210;2023-07-22T08:57:05;29.10;;;13.40;;
6141;SDS011;71289;51.552;6.210;2023-07-22T08:59:32;21.53;;;12.30;;
6141;SDS011;71289;51.552;6.210;2023-07-22T09:01:58;22.50;;;13.83;;
6141;SDS011;71289;51.552;6.210;2023-07-22T09:04:24;20.40;;;10.90;;
6141;SDS011;71289;51.552;6.210;2023-07-22T09:06:49;21.77;;;12.07;;
6141;SDS011;71289;51.552;6.210;2023-07-22T09:09:15;18.13;;;10.90;;
6141;SDS011;71289;51.552;6.210;2023-07-22T09:11:42;20.97;;;11.83;;
6141;SDS011;71289;51.552;6.210;2023-07-22T09:14:08;19.67;;;11.80;;
6141;SDS011;71289;51.552;6.210;2023-07-22T09:16:33;21.00;;;11.50;;
6141;SDS011;71289;51.552;6.210;2023-07-22T09:19:02;19.30;;;11.03;;
6141;SDS011;71289;51.552;6.210;2023-07-22T09:21:29;13.90;;;9.43;;
6141;SDS011;71289;51.552;6.210;2023-07-22T09:23:54;18.83;;;11.00;;
6141;SDS011;71289;51.552;6.210;2023-07-22T09:26:20;24.50;;;10.27;;
6141;SDS011;71289;51.552;6.210;2023-07-22T09:31:22;15.23;;;9.60;;
6141;SDS011;71289;51.552;6.210;2023-07-22T09:33:51;19.00;;;11.00;;
6141;SDS011;71289;51.552;6.210;2023-07-22T09:36:20;16.00;;;8.70;;
6141;SDS011;71289;51.552;6.210;2023-07-22T09:38:58;18.13;;;8.13;;
6141;SDS011;71289;51.552;6.210;2023-07-22T09:41:27;15.20;;;9.07;;
6141;SDS011;71289;51.552;6.210;2023-07-22T09:43:55;17.50;;;8.27;;
6141;SDS011;71289;51.552;6.210;2023-07-22T09:46:21;16.40;;;9.20;;
6141;SDS011;71289;51.552;6.210;2023-07-22T09:48:55;16.70;;;8.20;;
6141;SDS011;71289;51.552;6.210;2023-07-22T09:51:21;20.00;;;8.50;;
6141;SDS011;71289;51.552;6.210;2023-07-22T09:53:47;13.90;;;8.10;;
6141;SDS011;71289;51.552;6.210;2023-07-22T09:56:23;24.20;;;9.27;;
6141;SDS011;71289;51.552;6.210;2023-07-22T09:58:49;14.67;;;7.70;;
6141;SDS011;71289;51.552;6.210;2023-07-22T10:01:16;10.93;;;6.70;;
6141;SDS011;71289;51.552;6.210;2023-07-22T10:03:45;16.70;;;7.07;;
6141;SDS011;71289;51.552;6.210;2023-07-22T10:06:13;13.47;;;6.33;;
6141;SDS011;71289;51.552;6.210;2023-07-22T10:08:40;11.70;;;6.20;;
6141;SDS011;71289;51.552;6.210;2023-07-22T10:11:10;20.70;;;8.37;;
6141;SDS011;71289;51.552;6.210;2023-07-22T10:13:38;11.60;;;7.73;;
6141;SDS011;71289;51.552;6.210;2023-07-22T10:16:04;12.90;;;6.53;;
6141;SDS011;71289;51.552;6.210;2023-07-22T10:18:30;9.93;;;5.80;;
6141;SDS011;71289;51.552;6.210;2023-07-22T10:20:57;9.93;;;5.70;;
6141;SDS011;71289;51.552;6.210;2023-07-22T10:23:24;15.87;;;6.00;;
6141;SDS011;71289;51.552;6.210;2023-07-22T10:25:50;16.80;;;7.73;;
6141;SDS011;71289;51.552;6.210;2023-07-22T10:28:19;11.87;;;5.40;;
6141;SDS011;71289;51.552;6.210;2023-07-22T10:30:45;6.27;;;5.30;;
6141;SDS011;71289;51.552;6.210;2023-07-22T10:33:11;7.27;;;5.23;;
6141;SDS011;71289;51.552;6.210;2023-07-22T10:35:40;7.77;;;4.33;;
6141;SDS011;71289;51.552;6.210;2023-07-22T10:38:14;8.03;;;4.40;;
6141;SDS011;71289;51.552;6.210;2023-07-22T10:40:44;7.47;;;4.67;;
6141;SDS011;71289;51.552;6.210;2023-07-22T10:43:31;6.10;;;4.53;;
6141;SDS011;71289;51.552;6.210;2023-07-22T10:46:08;8.93;;;3.90;;
6141;SDS011;71289;51.552;6.210;2023-07-22T10:48:36;6.93;;;4.27;;
6141;SDS011;71289;51.552;6.210;2023-07-22T10:51:13;8.50;;;5.80;;
6141;SDS011;71289;51.552;6.210;2023-07-22T10:53:41;9.47;;;4.67;;
6141;SDS011;71289;51.552;6.210;2023-07-22T10:58:54;7.43;;;3.87;;
6141;SDS011;71289;51.552;6.210;2023-07-22T11:11:58;6.60;;;4.87;;
6141;SDS011;71289;51.552;6.210;2023-07-22T11:14:27;10.93;;;4.77;;
6141;SDS011;71289;51.552;6.210;2023-07-22T11:16:55;5.63;;;4.93;;
6141;SDS011;71289;51.552;6.210;2023-07-22T11:19:23;7.30;;;3.67;;
6141;SDS011;71289;51.552;6.210;2023-07-22T11:21:49;6.83;;;3.73;;
6141;SDS011;71289;51.552;6.210;2023-07-22T11:24:16;10.43;;;4.30;;
6141;SDS011;71289;51.552;6.210;2023-07-22T11:26:42;4.93;;;3.90;;
6141;SDS011;71289;51.552;6.210;2023-07-22T11:29:09;12.10;;;3.77;;
6141;SDS011;71289;51.552;6.210;2023-07-22T11:31:36;6.00;;;4.33;;
6141;SDS011;71289;51.552;6.210;2023-07-22T11:34:07;7.50;;;5.33;;
6141;SDS011;71289;51.552;6.210;2023-07-22T11:36:33;6.07;;;3.20;;
6141;SDS011;71289;51.552;6.210;2023-07-22T11:39:01;7.47;;;3.20;;
6141;SDS011;71289;51.552;6.210;2023-07-22T11:41:31;11.00;;;2.90;;
6141;SDS011;71289;51.552;6.210;2023-07-22T11:43:58;7.43;;;3.47;;
6141;SDS011;71289;51.552;6.210;2023-07-22T11:46:25;6.73;;;3.30;;
6141;SDS011;71289;51.552;6.210;2023-07-22T11:48:52;7.37;;;2.00;;
6141;SDS011;71289;51.552;6.210;2023-07-22T11:51:19;5.80;;;3.00;;
6141;SDS011;71289;51.552;6.210;2023-07-22T11:53:46;4.30;;;2.60;;
6141;SDS011;71289;51.552;6.210;2023-07-22T11:56:17;3.17;;;2.33;;
6141;SDS011;71289;51.552;6.210;2023-07-22T11:58:54;6.90;;;2.53;;
6141;SDS011;71289;51.552;6.210;2023-07-22T12:01:20;10.80;;;2.60;;
6141;SDS011;71289;51.552;6.210;2023-07-22T12:03:47;3.27;;;2.40;;
6141;SDS011;71289;51.552;6.210;2023-07-22T12:06:13;2.70;;;2.33;;
6141;SDS011;71289;51.552;6.210;2023-07-22T12:08:43;2.80;;;2.00;;
6141;SDS011;71289;51.552;6.210;2023-07-22T12:11:20;4.13;;;2.67;;
6141;SDS011;71289;51.552;6.210;2023-07-22T12:13:47;4.30;;;2.37;;
6141;SDS011;71289;51.552;6.210;2023-07-22T12:16:20;3.83;;;2.13;;
6141;SDS011;71289;51.552;6.210;2023-07-22T12:18:48;4.33;;;2.63;;
6141;SDS011;71289;51.552;6.210;2023-07-22T12:21:14;2.63;;;1.93;;
6141;SDS011;71289;51.552;6.210;2023-07-22T12:23:41;6.83;;;2.80;;
6141;SDS011;71289;51.552;6.210;2023-07-22T12:26:07;6.13;;;2.77;;
6141;SDS011;71289;51.552;6.210;2023-07-22T12:28:33;6.73;;;3.20;;
6141;SDS011;71289;51.552;6.210;2023-07-22T12:30:58;4.70;;;2.90;;
6141;SDS011;71289;51.552;6.210;2023-07-22T12:33:24;2.20;;;1.70;;
6141;SDS011;71289;51.552;6.210;2023-07-22T12:35:50;4.30;;;2.50;;
6141;SDS011;71289;51.552;6.210;2023-07-22T12:38:17;6.70;;;2.10;;
6141;SDS011;71289;51.552;6.210;2023-07-22T12:40:43;5.83;;;2.47;;
6141;SDS011;71289;51.552;6.210;2023-07-22T12:43:08;3.13;;;2.30;;
6141;SDS011;71289;51.552;6.210;2023-07-22T12:45:34;3.23;;;2.30;;
6141;SDS011;71289;51.552;6.210;2023-07-22T12:47:59;8.43;;;2.83;;
6141;SDS011;71289;51.552;6.210;2023-07-22T12:50:25;4.60;;;2.33;;
6141;SDS011;71289;51.552;6.210;2023-07-22T12:52:51;3.50;;;2.10;;
6141;SDS011;71289;51.552;6.210;2023-07-22T12:55:16;4.23;;;2.50;;
6141;SDS011;71289;51.552;6.210;2023-07-22T12:57:42;3.80;;;2.20;;
6141;SDS011;71289;51.552;6.210;2023-07-22T13:00:07;3.73;;;1.60;;
6141;SDS011;71289;51.552;6.210;2023-07-22T13:02:36;2.60;;;2.20;;
6141;SDS011;71289;51.552;6.210;2023-07-22T13:05:02;2.20;;;2.00;;
6141;SDS011;71289;51.552;6.210;2023-07-22T13:07:28;4.60;;;2.63;;
6141;SDS011;71289;51.552;6.210;2023-07-22T13:09:54;3.13;;;2.60;;
6141;SDS011;71289;51.552;6.210;2023-07-22T13:12:21;6.73;;;2.30;;
6141;SDS011;71289;51.552;6.210;2023-07-22T13:14:47;3.90;;;2.30;;
6141;SDS011;71289;51.552;6.210;2023-07-22T13:17:13;4.47;;;2.33;;
6141;SDS011;71289;51.552;6.210;2023-07-22T13:19:38;2.70;;;2.10;;
6141;SDS011;71289;51.552;6.210;2023-07-22T13:22:04;4.57;;;2.07;;
6141;SDS011;71289;51.552;6.210;2023-07-22T13:24:29;2.93;;;2.60;;
6141;SDS011;71289;51.552;6.210;2023-07-22T13:26:55;3.30;;;2.33;;
6141;SDS011;71289;51.552;6.210;2023-07-22T13:29:20;6.30;;;2.73;;
6141;SDS011;71289;51.552;6.210;2023-07-22T13:31:46;2.30;;;2.10;;
6141;SDS011;71289;51.552;6.210;2023-07-22T13:34:11;4.27;;;2.50;;
6141;SDS011;71289;51.552;6.210;2023-07-22T13:36:37;6.67;;;2.80;;
6141;SDS011;71289;51.552;6.210;2023-07-22T13:39:02;4.13;;;2.87;;
6141;SDS011;71289;51.552;6.210;2023-07-22T13:41:28;2.20;;;2.00;;
6141;SDS011;71289;51.552;6.210;2023-07-22T13:43:53;7.30;;;2.67;;
6141;SDS011;71289;51.552;6.210;2023-07-22T13:46:19;3.17;;;2.17;;
6141;SDS011;71289;51.552;6.210;2023-07-22T13:48:45;4.30;;;1.87;;
6141;SDS011;71289;51.552;6.210;2023-07-22T13:51:10;7.60;;;3.13;;
6141;SDS011;71289;51.552;6.210;2023-07-22T13:53:36;4.50;;;2.87;;
6141;SDS011;71289;51.552;6.210;2023-07-22T13:56:01;3.23;;;2.27;;
6141;SDS011;71289;51.552;6.210;2023-07-22T13:58:28;2.37;;;2.17;;
6141;SDS011;71289;51.552;6.210;2023-07-22T14:00:53;3.70;;;2.33;;
6141;SDS011;71289;51.552;6.210;2023-07-22T14:03:19;4.30;;;2.63;;
6141;SDS011;71289;51.552;6.210;2023-07-22T14:05:44;7.20;;;2.50;;
6141;SDS011;71289;51.552;6.210;2023-07-22T14:08:11;5.23;;;2.63;;
6141;SDS011;71289;51.552;6.210;2023-07-22T14:10:36;5.80;;;2.00;;
6141;SDS011;71289;51.552;6.210;2023-07-22T14:13:02;5.97;;;2.23;;
6141;SDS011;71289;51.552;6.210;2023-07-22T14:15:28;3.50;;;2.30;;
6141;SDS011;71289;51.552;6.210;2023-07-22T14:17:53;2.87;;;2.03;;
6141;SDS011;71289;51.552;6.210;2023-07-22T14:20:19;2.50;;;2.10;;
6141;SDS011;71289;51.552;6.210;2023-07-22T14:22:44;4.50;;;2.70;;
6141;SDS011;71289;51.552;6.210;2023-07-22T14:25:10;5.87;;;2.60;;
6141;SDS011;71289;51.552;6.210;2023-07-22T14:27:38;4.83;;;2.37;;
6141;SDS011;71289;51.552;6.210;2023-07-22T14:30:04;2.07;;;1.90;;
6141;SDS011;71289;51.552;6.210;2023-07-22T14:32:30;4.50;;;2.20;;
6141;SDS011;71289;51.552;6.210;2023-07-22T14:34:56;4.00;;;2.60;;
6141;SDS011;71289;51.552;6.210;2023-07-22T14:37:21;4.00;;;2.27;;
6141;SDS011;71289;51.552;6.210;2023-07-22T14:39:47;8.43;;;2.20;;
6141;SDS011;71289;51.552;6.210;2023-07-22T14:42:13;5.70;;;2.17;;
6141;SDS011;71289;51.552;6.210;2023-07-22T14:44:39;6.93;;;1.70;;
6141;SDS011;71289;51.552;6.210;2023-07-22T14:47:04;11.50;;;1.80;;
6141;SDS011;71289;51.552;6.210;2023-07-22T14:49:30;3.43;;;2.50;;
6141;SDS011;71289;51.552;6.210;2023-07-22T14:51:55;3.37;;;1.73;;
6141;SDS011;71289;51.552;6.210;2023-07-22T14:54:21;1.67;;;1.47;;
6141;SDS011;71289;51.552;6.210;2023-07-22T14:56:47;2.10;;;1.87;;